This is the latest recevied weather packets stored in our database for station/object WA1OUI. If no packets are shown the sender has not sent any weather packets the latest 1 day(s).
| Time | Temp. | Humidity | Pressure | Rain* | Wind** | Luminosity | Snow |
|---|---|---|---|---|---|---|---|
| 1836274696 | 14.44° C | 73% | 1018.5 hPa | 0 mm | 0.89 m/s, 343° | 0 W/m² | - |
| 1836274549 | 14.44° C | 72% | 1018.7 hPa | 0 mm | 1.34 m/s, 339° | 0 W/m² | - |
| 1836274394 | 14.44° C | 75% | 1018.4 hPa | 0 mm | 0.89 m/s, 327° | 0 W/m² | - |
| 1836274247 | 14.44° C | 73% | 1018.5 hPa | 0 mm | 1.34 m/s, 326° | 0 W/m² | - |
| 1836274093 | 14.44° C | 75% | 1018.5 hPa | 0 mm | 1.34 m/s, 325° | 0 W/m² | - |
| 1778062111 | 11.67° C | 95% | 1008 hPa | 0 mm | 0.89 m/s, 337° | 15 W/m² | - |
| 1778061809 | 11.67° C | 95% | 1008 hPa | 0 mm | 0.89 m/s, 339° | 16 W/m² | - |
| 1778061507 | 11.67° C | 95% | 1008 hPa | 0 mm | 0.89 m/s, 335° | 8 W/m² | - |
| 1778061203 | 11.67° C | 95% | 1008.1 hPa | 0 mm | 1.34 m/s, 342° | 3 W/m² | - |
| 1778060900 | 11.67° C | 95% | 1007.9 hPa | 0 mm | 0.89 m/s, 331° | 2 W/m² | - |
| 1778060599 | 11.67° C | 95% | 1008.1 hPa | 0 mm | 0.89 m/s, 334° | 1 W/m² | - |
| 1778060297 | 11.67° C | 95% | 1007.8 hPa | 0 mm | 1.34 m/s, 347° | 1 W/m² | - |
| 1778059994 | 11.67° C | 94% | 1007.9 hPa | 0 mm | 1.34 m/s, 341° | 0 W/m² | - |
| 1778059692 | 11.67° C | 94% | 1007.9 hPa | 0 mm | 0.89 m/s, 344° | 0 W/m² | - |
| 1778059389 | 11.67° C | 94% | 1007.8 hPa | 0 mm | 0.89 m/s, 325° | 0 W/m² | - |
| 1778059086 | 11.67° C | 94% | 1007.8 hPa | 0 mm | 0.89 m/s, 334° | 0 W/m² | - |
| 1778058784 | 11.67° C | 94% | 1008 hPa | 0 mm | 0.89 m/s, 335° | 0 W/m² | - |
| 1778058482 | 11.67° C | 94% | 1008 hPa | 0 mm | 1.34 m/s, 333° | 0 W/m² | - |
| 1778058178 | 11.67° C | 94% | 1008.1 hPa | 0 mm | 0.89 m/s, 343° | 0 W/m² | - |
| 1778057875 | 11.67° C | 93% | 1007.8 hPa | 0 mm | 1.34 m/s, 336° | 0 W/m² | - |
| 1778057571 | 12.22° C | 93% | 1007.9 hPa | 0 mm | 0.89 m/s, 341° | 0 W/m² | - |
| 1778057268 | 12.22° C | 93% | 1008 hPa | 0 mm | 0.89 m/s, 336° | 0 W/m² | - |
| 1778056964 | 12.22° C | 93% | 1008 hPa | 0 mm | 0.89 m/s, 334° | 0 W/m² | - |
| 1778056661 | 12.22° C | 93% | 1008.1 hPa | 0 mm | 1.34 m/s, 334° | 0 W/m² | - |
| 1778056359 | 12.22° C | 92% | 1008.1 hPa | 0 mm | 0.89 m/s, 336° | 0 W/m² | - |
* Rain latest hour (hover to see other rain measurements)
** Current wind speed in m/s (hover to see current wind gust speed)